sensor_id;sensor_type;location;lat;lon;timestamp;P1;durP1;ratioP1;P2;durP2;ratioP2
42714;SDS011;28351;51.480;5.706;2022-08-23T00:01:36;5.25;;;3.25;;
42714;SDS011;28351;51.480;5.706;2022-08-23T00:04:09;8.23;;;3.80;;
42714;SDS011;28351;51.480;5.706;2022-08-23T00:06:37;6.25;;;3.95;;
42714;SDS011;28351;51.480;5.706;2022-08-23T00:09:04;6.90;;;3.60;;
42714;SDS011;28351;51.480;5.706;2022-08-23T00:11:32;5.40;;;3.58;;
42714;SDS011;28351;51.480;5.706;2022-08-23T00:14:03;7.00;;;4.18;;
42714;SDS011;28351;51.480;5.706;2022-08-23T00:16:41;8.52;;;4.35;;
42714;SDS011;28351;51.480;5.706;2022-08-23T00:19:08;7.88;;;4.70;;
42714;SDS011;28351;51.480;5.706;2022-08-23T00:24:02;8.05;;;4.30;;
42714;SDS011;28351;51.480;5.706;2022-08-23T00:29:18;7.30;;;4.32;;
42714;SDS011;28351;51.480;5.706;2022-08-23T00:31:44;7.60;;;4.65;;
42714;SDS011;28351;51.480;5.706;2022-08-23T00:34:10;8.32;;;4.80;;
42714;SDS011;28351;51.480;5.706;2022-08-23T00:36:36;9.38;;;4.53;;
42714;SDS011;28351;51.480;5.706;2022-08-23T00:39:03;11.80;;;5.00;;
42714;SDS011;28351;51.480;5.706;2022-08-23T00:41:29;10.38;;;5.82;;
42714;SDS011;28351;51.480;5.706;2022-08-23T00:43:56;7.65;;;5.00;;
42714;SDS011;28351;51.480;5.706;2022-08-23T00:46:42;8.63;;;4.90;;
42714;SDS011;28351;51.480;5.706;2022-08-23T00:49:32;9.95;;;5.30;;
42714;SDS011;28351;51.480;5.706;2022-08-23T00:52:05;9.65;;;5.28;;
42714;SDS011;28351;51.480;5.706;2022-08-23T00:54:38;9.57;;;5.43;;
42714;SDS011;28351;51.480;5.706;2022-08-23T00:57:08;9.93;;;6.10;;
42714;SDS011;28351;51.480;5.706;2022-08-23T00:59:36;9.82;;;6.05;;
42714;SDS011;28351;51.480;5.706;2022-08-23T01:02:05;8.23;;;5.78;;
42714;SDS011;28351;51.480;5.706;2022-08-23T01:04:33;8.90;;;5.88;;
42714;SDS011;28351;51.480;5.706;2022-08-23T01:07:08;10.00;;;5.55;;
42714;SDS011;28351;51.480;5.706;2022-08-23T01:09:40;8.50;;;5.50;;
42714;SDS011;28351;51.480;5.706;2022-08-23T01:12:09;10.70;;;6.28;;
42714;SDS011;28351;51.480;5.706;2022-08-23T01:14:43;7.55;;;5.75;;
42714;SDS011;28351;51.480;5.706;2022-08-23T01:17:24;11.90;;;6.50;;
42714;SDS011;28351;51.480;5.706;2022-08-23T01:19:58;12.05;;;6.55;;
42714;SDS011;28351;51.480;5.706;2022-08-23T01:22:36;9.85;;;6.05;;
42714;SDS011;28351;51.480;5.706;2022-08-23T01:25:18;10.85;;;6.53;;
42714;SDS011;28351;51.480;5.706;2022-08-23T01:27:46;9.80;;;6.60;;
42714;SDS011;28351;51.480;5.706;2022-08-23T01:30:13;9.35;;;6.50;;
42714;SDS011;28351;51.480;5.706;2022-08-23T01:32:46;11.30;;;6.53;;
42714;SDS011;28351;51.480;5.706;2022-08-23T01:35:18;11.65;;;6.65;;
42714;SDS011;28351;51.480;5.706;2022-08-23T01:37:47;11.05;;;7.05;;
42714;SDS011;28351;51.480;5.706;2022-08-23T01:40:13;9.07;;;6.97;;
42714;SDS011;28351;51.480;5.706;2022-08-23T01:42:40;7.70;;;6.35;;
42714;SDS011;28351;51.480;5.706;2022-08-23T01:45:08;12.27;;;6.22;;
42714;SDS011;28351;51.480;5.706;2022-08-23T01:47:35;10.25;;;6.65;;
42714;SDS011;28351;51.480;5.706;2022-08-23T01:50:02;10.98;;;7.15;;
42714;SDS011;28351;51.480;5.706;2022-08-23T01:52:28;10.40;;;7.03;;
42714;SDS011;28351;51.480;5.706;2022-08-23T01:54:54;11.43;;;7.00;;
42714;SDS011;28351;51.480;5.706;2022-08-23T01:57:21;9.50;;;6.25;;
42714;SDS011;28351;51.480;5.706;2022-08-23T01:59:46;9.48;;;7.18;;
42714;SDS011;28351;51.480;5.706;2022-08-23T02:02:12;8.90;;;6.63;;
42714;SDS011;28351;51.480;5.706;2022-08-23T02:04:39;13.25;;;7.32;;
42714;SDS011;28351;51.480;5.706;2022-08-23T02:07:05;10.60;;;6.57;;
42714;SDS011;28351;51.480;5.706;2022-08-23T02:09:33;9.70;;;7.07;;
42714;SDS011;28351;51.480;5.706;2022-08-23T02:11:59;10.88;;;6.75;;
42714;SDS011;28351;51.480;5.706;2022-08-23T02:14:24;10.02;;;6.40;;
42714;SDS011;28351;51.480;5.706;2022-08-23T02:16:51;10.38;;;6.75;;
42714;SDS011;28351;51.480;5.706;2022-08-23T02:19:19;12.68;;;7.07;;
42714;SDS011;28351;51.480;5.706;2022-08-23T02:21:45;12.82;;;7.35;;
42714;SDS011;28351;51.480;5.706;2022-08-23T02:24:13;11.05;;;6.50;;
42714;SDS011;28351;51.480;5.706;2022-08-23T02:26:43;8.27;;;6.45;;
42714;SDS011;28351;51.480;5.706;2022-08-23T02:29:13;8.02;;;6.30;;
42714;SDS011;28351;51.480;5.706;2022-08-23T02:31:39;9.10;;;6.47;;
42714;SDS011;28351;51.480;5.706;2022-08-23T02:34:05;12.90;;;6.97;;
42714;SDS011;28351;51.480;5.706;2022-08-23T02:36:31;9.23;;;7.03;;
42714;SDS011;28351;51.480;5.706;2022-08-23T02:38:58;9.13;;;6.18;;
42714;SDS011;28351;51.480;5.706;2022-08-23T02:41:24;8.45;;;6.45;;
42714;SDS011;28351;51.480;5.706;2022-08-23T02:43:50;10.73;;;6.50;;
42714;SDS011;28351;51.480;5.706;2022-08-23T02:46:17;9.88;;;6.80;;
42714;SDS011;28351;51.480;5.706;2022-08-23T02:48:43;12.13;;;6.55;;
42714;SDS011;28351;51.480;5.706;2022-08-23T02:51:09;10.15;;;6.18;;
42714;SDS011;28351;51.480;5.706;2022-08-23T02:53:34;12.18;;;6.60;;
42714;SDS011;28351;51.480;5.706;2022-08-23T02:56:01;8.75;;;6.68;;
42714;SDS011;28351;51.480;5.706;2022-08-23T02:58:26;11.63;;;7.22;;
42714;SDS011;28351;51.480;5.706;2022-08-23T03:00:52;12.50;;;6.75;;
42714;SDS011;28351;51.480;5.706;2022-08-23T03:03:19;11.75;;;6.35;;
42714;SDS011;28351;51.480;5.706;2022-08-23T03:05:45;10.48;;;7.22;;
42714;SDS011;28351;51.480;5.706;2022-08-23T03:08:11;11.10;;;7.13;;
42714;SDS011;28351;51.480;5.706;2022-08-23T03:10:41;12.32;;;7.30;;
42714;SDS011;28351;51.480;5.706;2022-08-23T03:13:11;12.93;;;7.40;;
42714;SDS011;28351;51.480;5.706;2022-08-23T03:15:37;12.13;;;7.13;;
42714;SDS011;28351;51.480;5.706;2022-08-23T03:18:03;12.05;;;7.95;;
42714;SDS011;28351;51.480;5.706;2022-08-23T03:20:29;13.23;;;7.90;;
42714;SDS011;28351;51.480;5.706;2022-08-23T03:22:56;12.05;;;7.80;;
42714;SDS011;28351;51.480;5.706;2022-08-23T03:25:21;9.75;;;7.15;;
42714;SDS011;28351;51.480;5.706;2022-08-23T03:27:47;11.52;;;7.03;;
42714;SDS011;28351;51.480;5.706;2022-08-23T03:30:13;9.63;;;6.80;;
42714;SDS011;28351;51.480;5.706;2022-08-23T03:32:39;12.85;;;7.65;;
42714;SDS011;28351;51.480;5.706;2022-08-23T03:35:05;13.57;;;8.25;;
42714;SDS011;28351;51.480;5.706;2022-08-23T03:37:31;9.80;;;7.07;;
42714;SDS011;28351;51.480;5.706;2022-08-23T03:39:57;14.60;;;7.13;;
42714;SDS011;28351;51.480;5.706;2022-08-23T03:42:22;11.52;;;7.45;;
42714;SDS011;28351;51.480;5.706;2022-08-23T03:44:49;11.48;;;7.93;;
42714;SDS011;28351;51.480;5.706;2022-08-23T03:47:14;12.27;;;8.23;;
42714;SDS011;28351;51.480;5.706;2022-08-23T03:49:40;13.00;;;7.43;;
42714;SDS011;28351;51.480;5.706;2022-08-23T03:52:05;11.93;;;7.13;;
42714;SDS011;28351;51.480;5.706;2022-08-23T03:54:31;9.30;;;7.47;;
42714;SDS011;28351;51.480;5.706;2022-08-23T03:57:02;11.00;;;7.32;;
42714;SDS011;28351;51.480;5.706;2022-08-23T03:59:29;14.52;;;6.95;;
42714;SDS011;28351;51.480;5.706;2022-08-23T04:01:57;12.30;;;7.70;;
42714;SDS011;28351;51.480;5.706;2022-08-23T04:04:22;12.65;;;7.80;;
42714;SDS011;28351;51.480;5.706;2022-08-23T04:06:48;12.32;;;7.90;;
42714;SDS011;28351;51.480;5.706;2022-08-23T04:09:14;10.23;;;7.00;;
42714;SDS011;28351;51.480;5.706;2022-08-23T04:11:40;10.20;;;6.93;;
42714;SDS011;28351;51.480;5.706;2022-08-23T04:14:07;10.07;;;6.30;;
42714;SDS011;28351;51.480;5.706;2022-08-23T04:16:33;8.57;;;6.57;;
42714;SDS011;28351;51.480;5.706;2022-08-23T04:19:05;12.10;;;6.95;;
42714;SDS011;28351;51.480;5.706;2022-08-23T04:21:32;11.77;;;6.88;;
42714;SDS011;28351;51.480;5.706;2022-08-23T04:24:00;12.75;;;7.20;;
42714;SDS011;28351;51.480;5.706;2022-08-23T04:26:26;10.80;;;6.47;;
42714;SDS011;28351;51.480;5.706;2022-08-23T04:28:51;8.05;;;6.55;;
42714;SDS011;28351;51.480;5.706;2022-08-23T04:31:17;9.55;;;6.93;;
42714;SDS011;28351;51.480;5.706;2022-08-23T04:33:45;10.25;;;6.65;;
42714;SDS011;28351;51.480;5.706;2022-08-23T04:36:11;9.93;;;6.43;;
42714;SDS011;28351;51.480;5.706;2022-08-23T04:38:37;11.18;;;6.70;;
42714;SDS011;28351;51.480;5.706;2022-08-23T04:41:02;8.80;;;6.13;;
42714;SDS011;28351;51.480;5.706;2022-08-23T04:43:46;9.88;;;6.78;;
42714;SDS011;28351;51.480;5.706;2022-08-23T04:46:13;10.25;;;6.32;;
42714;SDS011;28351;51.480;5.706;2022-08-23T04:48:39;11.90;;;6.38;;
42714;SDS011;28351;51.480;5.706;2022-08-23T04:51:06;9.30;;;6.93;;
42714;SDS011;28351;51.480;5.706;2022-08-23T04:53:35;10.77;;;7.32;;
42714;SDS011;28351;51.480;5.706;2022-08-23T04:56:02;9.40;;;6.55;;
42714;SDS011;28351;51.480;5.706;2022-08-23T04:58:29;12.25;;;7.10;;
42714;SDS011;28351;51.480;5.706;2022-08-23T05:00:57;9.60;;;6.70;;
42714;SDS011;28351;51.480;5.706;2022-08-23T05:03:27;8.57;;;6.55;;
42714;SDS011;28351;51.480;5.706;2022-08-23T05:05:53;11.68;;;6.75;;
42714;SDS011;28351;51.480;5.706;2022-08-23T05:08:24;8.57;;;6.70;;
42714;SDS011;28351;51.480;5.706;2022-08-23T05:10:51;10.57;;;6.70;;
42714;SDS011;28351;51.480;5.706;2022-08-23T05:13:17;10.07;;;7.30;;
42714;SDS011;28351;51.480;5.706;2022-08-23T05:15:42;14.95;;;7.30;;
42714;SDS011;28351;51.480;5.706;2022-08-23T05:18:08;8.32;;;6.45;;
42714;SDS011;28351;51.480;5.706;2022-08-23T05:20:34;9.77;;;7.40;;
42714;SDS011;28351;51.480;5.706;2022-08-23T05:23:00;11.77;;;7.07;;
42714;SDS011;28351;51.480;5.706;2022-08-23T05:25:29;12.20;;;7.38;;
42714;SDS011;28351;51.480;5.706;2022-08-23T05:28:13;11.95;;;6.72;;
42714;SDS011;28351;51.480;5.706;2022-08-23T05:30:43;8.02;;;6.50;;
42714;SDS011;28351;51.480;5.706;2022-08-23T05:33:09;9.15;;;6.07;;
42714;SDS011;28351;51.480;5.706;2022-08-23T05:35:36;16.40;;;8.55;;
42714;SDS011;28351;51.480;5.706;2022-08-23T05:38:04;13.82;;;9.30;;
42714;SDS011;28351;51.480;5.706;2022-08-23T05:40:30;13.60;;;11.13;;
42714;SDS011;28351;51.480;5.706;2022-08-23T05:42:55;15.45;;;11.75;;
42714;SDS011;28351;51.480;5.706;2022-08-23T05:45:21;18.50;;;13.68;;
42714;SDS011;28351;51.480;5.706;2022-08-23T05:47:47;17.60;;;13.30;;
42714;SDS011;28351;51.480;5.706;2022-08-23T05:50:13;17.90;;;12.18;;
42714;SDS011;28351;51.480;5.706;2022-08-23T05:52:39;16.17;;;12.68;;
42714;SDS011;28351;51.480;5.706;2022-08-23T05:55:05;17.02;;;14.13;;
42714;SDS011;28351;51.480;5.706;2022-08-23T05:57:35;17.45;;;13.02;;
42714;SDS011;28351;51.480;5.706;2022-08-23T06:00:03;17.85;;;13.10;;
42714;SDS011;28351;51.480;5.706;2022-08-23T06:02:36;20.13;;;13.32;;
42714;SDS011;28351;51.480;5.706;2022-08-23T06:05:01;22.38;;;12.90;;
42714;SDS011;28351;51.480;5.706;2022-08-23T06:07:27;20.92;;;12.13;;
42714;SDS011;28351;51.480;5.706;2022-08-23T06:09:53;18.40;;;12.15;;
42714;SDS011;28351;51.480;5.706;2022-08-23T06:12:19;17.67;;;11.50;;
42714;SDS011;28351;51.480;5.706;2022-08-23T06:14:45;17.95;;;12.63;;
42714;SDS011;28351;51.480;5.706;2022-08-23T06:17:11;18.65;;;13.30;;
42714;SDS011;28351;51.480;5.706;2022-08-23T06:19:38;17.20;;;13.07;;
42714;SDS011;28351;51.480;5.706;2022-08-23T06:22:04;23.73;;;13.45;;
42714;SDS011;28351;51.480;5.706;2022-08-23T06:24:30;18.58;;;13.57;;
42714;SDS011;28351;51.480;5.706;2022-08-23T06:26:55;17.90;;;13.40;;
42714;SDS011;28351;51.480;5.706;2022-08-23T06:29:21;17.48;;;13.73;;
42714;SDS011;28351;51.480;5.706;2022-08-23T06:31:50;20.77;;;14.73;;
42714;SDS011;28351;51.480;5.706;2022-08-23T06:34:24;18.88;;;14.73;;
42714;SDS011;28351;51.480;5.706;2022-08-23T06:36:52;21.65;;;15.60;;
42714;SDS011;28351;51.480;5.706;2022-08-23T06:39:23;21.02;;;14.82;;
42714;SDS011;28351;51.480;5.706;2022-08-23T06:41:50;19.95;;;15.50;;
42714;SDS011;28351;51.480;5.706;2022-08-23T06:44:17;20.08;;;15.60;;
42714;SDS011;28351;51.480;5.706;2022-08-23T06:46:44;24.02;;;15.77;;
42714;SDS011;28351;51.480;5.706;2022-08-23T06:49:10;20.73;;;14.60;;
42714;SDS011;28351;51.480;5.706;2022-08-23T06:51:44;19.17;;;14.05;;
42714;SDS011;28351;51.480;5.706;2022-08-23T06:54:13;20.23;;;13.85;;
42714;SDS011;28351;51.480;5.706;2022-08-23T06:56:40;21.40;;;14.15;;
42714;SDS011;28351;51.480;5.706;2022-08-23T06:59:07;19.85;;;14.00;;
42714;SDS011;28351;51.480;5.706;2022-08-23T07:04:11;18.90;;;13.13;;
42714;SDS011;28351;51.480;5.706;2022-08-23T07:06:38;21.45;;;13.55;;
42714;SDS011;28351;51.480;5.706;2022-08-23T07:09:05;19.33;;;13.82;;
42714;SDS011;28351;51.480;5.706;2022-08-23T07:11:31;19.88;;;13.52;;
42714;SDS011;28351;51.480;5.706;2022-08-23T07:14:01;16.50;;;12.98;;
42714;SDS011;28351;51.480;5.706;2022-08-23T07:16:32;17.15;;;12.00;;
42714;SDS011;28351;51.480;5.706;2022-08-23T07:19:03;15.40;;;11.48;;
42714;SDS011;28351;51.480;5.706;2022-08-23T07:21:29;16.08;;;12.00;;
42714;SDS011;28351;51.480;5.706;2022-08-23T07:23:55;20.88;;;13.80;;
42714;SDS011;28351;51.480;5.706;2022-08-23T07:26:21;22.15;;;14.23;;
42714;SDS011;28351;51.480;5.706;2022-08-23T07:28:48;15.25;;;11.77;;
42714;SDS011;28351;51.480;5.706;2022-08-23T07:31:16;18.05;;;13.13;;
42714;SDS011;28351;51.480;5.706;2022-08-23T07:33:45;21.25;;;13.30;;
42714;SDS011;28351;51.480;5.706;2022-08-23T07:36:12;19.75;;;13.48;;
42714;SDS011;28351;51.480;5.706;2022-08-23T07:41:06;18.60;;;13.65;;
42714;SDS011;28351;51.480;5.706;2022-08-23T07:43:31;19.95;;;12.85;;
42714;SDS011;28351;51.480;5.706;2022-08-23T07:45:58;20.75;;;13.02;;
42714;SDS011;28351;51.480;5.706;2022-08-23T07:48:24;20.55;;;12.18;;
42714;SDS011;28351;51.480;5.706;2022-08-23T07:50:51;17.15;;;11.00;;
42714;SDS011;28351;51.480;5.706;2022-08-23T07:53:21;16.52;;;11.57;;
42714;SDS011;28351;51.480;5.706;2022-08-23T07:55:47;18.48;;;11.45;;
42714;SDS011;28351;51.480;5.706;2022-08-23T07:58:13;19.88;;;12.07;;
42714;SDS011;28351;51.480;5.706;2022-08-23T08:00:39;18.77;;;11.40;;
42714;SDS011;28351;51.480;5.706;2022-08-23T08:03:04;14.43;;;11.55;;
42714;SDS011;28351;51.480;5.706;2022-08-23T08:05:31;17.45;;;12.77;;
42714;SDS011;28351;51.480;5.706;2022-08-23T08:07:57;16.38;;;11.98;;
42714;SDS011;28351;51.480;5.706;2022-08-23T08:10:23;19.23;;;11.07;;
42714;SDS011;28351;51.480;5.706;2022-08-23T08:12:48;18.15;;;10.85;;
42714;SDS011;28351;51.480;5.706;2022-08-23T08:15:14;17.85;;;11.52;;
42714;SDS011;28351;51.480;5.706;2022-08-23T08:17:41;16.00;;;10.77;;
42714;SDS011;28351;51.480;5.706;2022-08-23T08:20:10;17.23;;;10.63;;
42714;SDS011;28351;51.480;5.706;2022-08-23T08:22:35;13.80;;;9.20;;
42714;SDS011;28351;51.480;5.706;2022-08-23T08:25:01;12.73;;;7.40;;
42714;SDS011;28351;51.480;5.706;2022-08-23T08:27:26;13.80;;;7.93;;
42714;SDS011;28351;51.480;5.706;2022-08-23T08:29:52;17.75;;;10.00;;
42714;SDS011;28351;51.480;5.706;2022-08-23T08:32:19;17.30;;;11.02;;
42714;SDS011;28351;51.480;5.706;2022-08-23T08:34:44;15.52;;;8.73;;
42714;SDS011;28351;51.480;5.706;2022-08-23T08:37:10;14.50;;;9.23;;
42714;SDS011;28351;51.480;5.706;2022-08-23T08:39:35;13.55;;;8.25;;
42714;SDS011;28351;51.480;5.706;2022-08-23T08:44:59;13.30;;;8.93;;
42714;SDS011;28351;51.480;5.706;2022-08-23T08:47:34;13.70;;;8.00;;
42714;SDS011;28351;51.480;5.706;2022-08-23T08:50:14;14.90;;;12.00;;
42714;SDS011;28351;51.480;5.706;2022-08-23T08:52:51;13.38;;;10.57;;
42714;SDS011;28351;51.480;5.706;2022-08-23T08:55:23;17.08;;;11.38;;
42714;SDS011;28351;51.480;5.706;2022-08-23T08:57:55;15.07;;;10.38;;
42714;SDS011;28351;51.480;5.706;2022-08-23T09:00:30;16.02;;;11.05;;
42714;SDS011;28351;51.480;5.706;2022-08-23T09:03:04;16.15;;;11.25;;
42714;SDS011;28351;51.480;5.706;2022-08-23T09:05:36;15.45;;;11.52;;
42714;SDS011;28351;51.480;5.706;2022-08-23T09:13:31;16.88;;;11.60;;
42714;SDS011;28351;51.480;5.706;2022-08-23T09:16:21;12.57;;;9.18;;
42714;SDS011;28351;51.480;5.706;2022-08-23T09:18:58;10.00;;;7.70;;
42714;SDS011;28351;51.480;5.706;2022-08-23T09:21:25;12.82;;;7.68;;
42714;SDS011;28351;51.480;5.706;2022-08-23T09:23:51;15.18;;;8.98;;
42714;SDS011;28351;51.480;5.706;2022-08-23T09:26:19;12.75;;;8.90;;
42714;SDS011;28351;51.480;5.706;2022-08-23T09:28:49;12.63;;;8.70;;
42714;SDS011;28351;51.480;5.706;2022-08-23T09:32:03;9.88;;;6.78;;
42714;SDS011;28351;51.480;5.706;2022-08-23T09:34:08;8.75;;;5.20;;
42714;SDS011;28351;51.480;5.706;2022-08-23T09:36:39;9.82;;;5.45;;
42714;SDS011;28351;51.480;5.706;2022-08-23T09:39:08;12.30;;;6.30;;
42714;SDS011;28351;51.480;5.706;2022-08-23T09:41:49;7.88;;;5.82;;
42714;SDS011;28351;51.480;5.706;2022-08-23T09:44:29;10.75;;;5.63;;
42714;SDS011;28351;51.480;5.706;2022-08-23T09:47:14;8.30;;;5.45;;
42714;SDS011;28351;51.480;5.706;2022-08-23T09:49:41;6.82;;;4.25;;
42714;SDS011;28351;51.480;5.706;2022-08-23T09:54:54;7.57;;;3.38;;
42714;SDS011;28351;51.480;5.706;2022-08-23T09:57:27;7.65;;;3.65;;
42714;SDS011;28351;51.480;5.706;2022-08-23T09:59:55;6.70;;;3.70;;
42714;SDS011;28351;51.480;5.706;2022-08-23T10:02:28;7.60;;;3.10;;
42714;SDS011;28351;51.480;5.706;2022-08-23T10:05:08;9.43;;;3.03;;
42714;SDS011;28351;51.480;5.706;2022-08-23T10:07:44;6.00;;;2.42;;
42714;SDS011;28351;51.480;5.706;2022-08-23T10:10:28;6.57;;;3.30;;
42714;SDS011;28351;51.480;5.706;2022-08-23T10:12:59;5.82;;;3.22;;
42714;SDS011;28351;51.480;5.706;2022-08-23T10:15:40;5.32;;;2.90;;
42714;SDS011;28351;51.480;5.706;2022-08-23T10:18:10;7.10;;;2.90;;
42714;SDS011;28351;51.480;5.706;2022-08-23T10:26:42;4.50;;;2.60;;
42714;SDS011;28351;51.480;5.706;2022-08-23T10:32:08;4.05;;;2.38;;
42714;SDS011;28351;51.480;5.706;2022-08-23T10:37:54;5.05;;;2.33;;
42714;SDS011;28351;51.480;5.706;2022-08-23T10:40:41;3.80;;;2.00;;
42714;SDS011;28351;51.480;5.706;2022-08-23T10:46:02;6.30;;;2.17;;
42714;SDS011;28351;51.480;5.706;2022-08-23T10:48:33;3.95;;;2.30;;
42714;SDS011;28351;51.480;5.706;2022-08-23T10:51:10;4.15;;;2.28;;
42714;SDS011;28351;51.480;5.706;2022-08-23T10:53:42;4.13;;;2.25;;
42714;SDS011;28351;51.480;5.706;2022-08-23T10:56:36;3.97;;;2.13;;
42714;SDS011;28351;51.480;5.706;2022-08-23T10:59:06;5.50;;;2.65;;
42714;SDS011;28351;51.480;5.706;2022-08-23T11:06:57;3.35;;;1.60;;
42714;SDS011;28351;51.480;5.706;2022-08-23T11:12:05;4.05;;;1.98;;
42714;SDS011;28351;51.480;5.706;2022-08-23T11:14:45;6.95;;;2.20;;
42714;SDS011;28351;51.480;5.706;2022-08-23T11:17:26;4.85;;;2.25;;
42714;SDS011;28351;51.480;5.706;2022-08-23T11:19:56;3.33;;;1.67;;
42714;SDS011;28351;51.480;5.706;2022-08-23T11:22:32;4.07;;;1.90;;
42714;SDS011;28351;51.480;5.706;2022-08-23T11:27:43;4.15;;;1.67;;
42714;SDS011;28351;51.480;5.706;2022-08-23T11:33:05;2.95;;;1.55;;
42714;SDS011;28351;51.480;5.706;2022-08-23T11:35:55;4.07;;;2.25;;
42714;SDS011;28351;51.480;5.706;2022-08-23T11:41:24;2.05;;;1.40;;
42714;SDS011;28351;51.480;5.706;2022-08-23T11:46:26;3.15;;;1.42;;
42714;SDS011;28351;51.480;5.706;2022-08-23T12:03:27;5.10;;;2.30;;
42714;SDS011;28351;51.480;5.706;2022-08-23T12:08:49;4.28;;;1.50;;
42714;SDS011;28351;51.480;5.706;2022-08-23T12:11:22;4.95;;;1.90;;
42714;SDS011;28351;51.480;5.706;2022-08-23T12:13:54;4.05;;;1.90;;
42714;SDS011;28351;51.480;5.706;2022-08-23T12:16:46;3.43;;;1.80;;
42714;SDS011;28351;51.480;5.706;2022-08-23T12:19:17;3.25;;;2.00;;
42714;SDS011;28351;51.480;5.706;2022-08-23T12:21:49;4.32;;;2.10;;
42714;SDS011;28351;51.480;5.706;2022-08-23T12:29:37;3.33;;;2.08;;
42714;SDS011;28351;51.480;5.706;2022-08-23T12:40:43;3.67;;;1.67;;
42714;SDS011;28351;51.480;5.706;2022-08-23T12:43:09;3.63;;;1.27;;
42714;SDS011;28351;51.480;5.706;2022-08-23T12:45:40;4.40;;;1.30;;
42714;SDS011;28351;51.480;5.706;2022-08-23T12:48:13;3.67;;;1.30;;
42714;SDS011;28351;51.480;5.706;2022-08-23T12:50:44;2.65;;;1.30;;
42714;SDS011;28351;51.480;5.706;2022-08-23T12:53:24;2.78;;;1.20;;
42714;SDS011;28351;51.480;5.706;2022-08-23T12:55:58;3.13;;;1.30;;
42714;SDS011;28351;51.480;5.706;2022-08-23T12:58:27;3.30;;;1.33;;
42714;SDS011;28351;51.480;5.706;2022-08-23T13:00:57;2.72;;;1.42;;
42714;SDS011;28351;51.480;5.706;2022-08-23T13:05:59;3.08;;;1.20;;
42714;SDS011;28351;51.480;5.706;2022-08-23T13:08:38;5.32;;;1.20;;
42714;SDS011;28351;51.480;5.706;2022-08-23T13:11:24;2.38;;;1.08;;
42714;SDS011;28351;51.480;5.706;2022-08-23T13:13:50;2.50;;;1.20;;
42714;SDS011;28351;51.480;5.706;2022-08-23T13:19:15;4.07;;;1.30;;
42714;SDS011;28351;51.480;5.706;2022-08-23T13:21:43;4.40;;;1.50;;
42714;SDS011;28351;51.480;5.706;2022-08-23T13:24:25;2.60;;;1.27;;
42714;SDS011;28351;51.480;5.706;2022-08-23T13:27:11;2.00;;;1.13;;
42714;SDS011;28351;51.480;5.706;2022-08-23T13:29:55;2.55;;;1.42;;
42714;SDS011;28351;51.480;5.706;2022-08-23T13:32:29;2.08;;;1.20;;
42714;SDS011;28351;51.480;5.706;2022-08-23T13:38:17;3.47;;;1.55;;
42714;SDS011;28351;51.480;5.706;2022-08-23T13:41:07;3.17;;;1.60;;
42714;SDS011;28351;51.480;5.706;2022-08-23T13:46:18;2.25;;;1.40;;
42714;SDS011;28351;51.480;5.706;2022-08-23T13:51:31;3.72;;;1.50;;
42714;SDS011;28351;51.480;5.706;2022-08-23T13:54:05;2.88;;;1.17;;
42714;SDS011;28351;51.480;5.706;2022-08-23T13:56:40;1.63;;;1.00;;
42714;SDS011;28351;51.480;5.706;2022-08-23T14:01:48;2.92;;;1.10;;
42714;SDS011;28351;51.480;5.706;2022-08-23T14:04:14;3.22;;;1.35;;
42714;SDS011;28351;51.480;5.706;2022-08-23T14:06:40;2.53;;;1.15;;
42714;SDS011;28351;51.480;5.706;2022-08-23T14:09:06;2.05;;;1.00;;
42714;SDS011;28351;51.480;5.706;2022-08-23T14:11:32;1.80;;;1.17;;
42714;SDS011;28351;51.480;5.706;2022-08-23T14:14:01;3.75;;;1.92;;
42714;SDS011;28351;51.480;5.706;2022-08-23T14:16:29;3.17;;;1.33;;
42714;SDS011;28351;51.480;5.706;2022-08-23T14:19:13;2.03;;;1.33;;
42714;SDS011;28351;51.480;5.706;2022-08-23T14:21:39;1.23;;;1.00;;
42714;SDS011;28351;51.480;5.706;2022-08-23T14:24:04;2.08;;;1.05;;
42714;SDS011;28351;51.480;5.706;2022-08-23T14:26:33;2.47;;;1.17;;
42714;SDS011;28351;51.480;5.706;2022-08-23T14:28:59;3.08;;;1.05;;
42714;SDS011;28351;51.480;5.706;2022-08-23T14:31:24;3.35;;;1.00;;
42714;SDS011;28351;51.480;5.706;2022-08-23T14:33:51;2.45;;;1.10;;
42714;SDS011;28351;51.480;5.706;2022-08-23T14:36:17;1.50;;;1.02;;
42714;SDS011;28351;51.480;5.706;2022-08-23T14:38:42;2.00;;;1.17;;
42714;SDS011;28351;51.480;5.706;2022-08-23T14:41:08;2.30;;;1.00;;
42714;SDS011;28351;51.480;5.706;2022-08-23T14:43:42;2.50;;;0.90;;
42714;SDS011;28351;51.480;5.706;2022-08-23T14:46:08;1.10;;;0.93;;
42714;SDS011;28351;51.480;5.706;2022-08-23T14:48:34;1.40;;;0.98;;
42714;SDS011;28351;51.480;5.706;2022-08-23T14:51:00;3.88;;;2.63;;
42714;SDS011;28351;51.480;5.706;2022-08-23T14:53:28;1.30;;;0.85;;
42714;SDS011;28351;51.480;5.706;2022-08-23T14:55:56;1.73;;;1.20;;
42714;SDS011;28351;51.480;5.706;2022-08-23T14:58:22;1.42;;;1.05;;
42714;SDS011;28351;51.480;5.706;2022-08-23T15:00:48;2.20;;;0.97;;
42714;SDS011;28351;51.480;5.706;2022-08-23T15:03:17;2.25;;;1.00;;
42714;SDS011;28351;51.480;5.706;2022-08-23T15:05:47;1.70;;;0.80;;
42714;SDS011;28351;51.480;5.706;2022-08-23T15:08:13;1.92;;;1.00;;
42714;SDS011;28351;51.480;5.706;2022-08-23T15:10:39;1.13;;;0.90;;
42714;SDS011;28351;51.480;5.706;2022-08-23T15:13:04;2.80;;;0.85;;
42714;SDS011;28351;51.480;5.706;2022-08-23T15:15:31;1.52;;;0.90;;
42714;SDS011;28351;51.480;5.706;2022-08-23T15:17:59;1.55;;;1.05;;
42714;SDS011;28351;51.480;5.706;2022-08-23T15:20:31;2.53;;;1.00;;
42714;SDS011;28351;51.480;5.706;2022-08-23T15:22:58;2.28;;;1.20;;
42714;SDS011;28351;51.480;5.706;2022-08-23T15:25:25;3.15;;;0.93;;
42714;SDS011;28351;51.480;5.706;2022-08-23T15:27:54;2.00;;;1.10;;
42714;SDS011;28351;51.480;5.706;2022-08-23T15:30:20;3.30;;;0.80;;
42714;SDS011;28351;51.480;5.706;2022-08-23T15:32:47;1.80;;;0.95;;
42714;SDS011;28351;51.480;5.706;2022-08-23T15:35:13;3.03;;;1.30;;
42714;SDS011;28351;51.480;5.706;2022-08-23T15:37:38;2.85;;;1.20;;
42714;SDS011;28351;51.480;5.706;2022-08-23T15:40:05;2.63;;;1.10;;
42714;SDS011;28351;51.480;5.706;2022-08-23T15:42:32;1.17;;;0.90;;
42714;SDS011;28351;51.480;5.706;2022-08-23T15:44:57;2.25;;;1.00;;
42714;SDS011;28351;51.480;5.706;2022-08-23T15:47:25;1.45;;;0.85;;
42714;SDS011;28351;51.480;5.706;2022-08-23T15:49:53;2.70;;;1.10;;
42714;SDS011;28351;51.480;5.706;2022-08-23T15:52:19;1.10;;;0.70;;
42714;SDS011;28351;51.480;5.706;2022-08-23T15:54:45;1.63;;;0.80;;
42714;SDS011;28351;51.480;5.706;2022-08-23T15:57:19;1.35;;;1.00;;
42714;SDS011;28351;51.480;5.706;2022-08-23T15:59:48;2.63;;;1.00;;
42714;SDS011;28351;51.480;5.706;2022-08-23T16:02:14;3.15;;;1.35;;
42714;SDS011;28351;51.480;5.706;2022-08-23T16:04:40;3.88;;;1.10;;
42714;SDS011;28351;51.480;5.706;2022-08-23T16:07:07;3.17;;;1.10;;
42714;SDS011;28351;51.480;5.706;2022-08-23T16:09:36;2.65;;;1.13;;
42714;SDS011;28351;51.480;5.706;2022-08-23T16:12:02;3.20;;;1.17;;
42714;SDS011;28351;51.480;5.706;2022-08-23T16:14:28;2.60;;;1.30;;
42714;SDS011;28351;51.480;5.706;2022-08-23T16:16:56;2.10;;;1.00;;
42714;SDS011;28351;51.480;5.706;2022-08-23T16:19:23;1.80;;;1.00;;
42714;SDS011;28351;51.480;5.706;2022-08-23T16:21:49;2.28;;;1.10;;
42714;SDS011;28351;51.480;5.706;2022-08-23T16:24:17;1.45;;;0.73;;
42714;SDS011;28351;51.480;5.706;2022-08-23T16:26:46;2.38;;;1.10;;
42714;SDS011;28351;51.480;5.706;2022-08-23T16:29:13;1.25;;;0.80;;
42714;SDS011;28351;51.480;5.706;2022-08-23T16:31:43;2.35;;;1.10;;
42714;SDS011;28351;51.480;5.706;2022-08-23T16:34:10;1.83;;;1.00;;